Time;durP1;ratioP1;P1;durP2;ratioP2;P2;SDS_P1;SDS_P2;PMS_P1;PMS_P2;Temp;Humidity;BMP_temperature;BMP_pressure;BME280_temperature;BME280_humidity;BME280_pressure;Samples;Min_cycle;Max_cycle;Signal;HPM_P1;HPM_P2
2021/04/09 00:02:17;;;;;;;16.70;11.15;;;;;;;3.71;61.20;101640.81;5264023;28;20041;-69
2021/04/09 00:04:48;;;;;;;16.55;11.95;;;;;;;3.73;61.50;101638.19;5268177;28;20034;-69
2021/04/09 00:07:23;;;;;;;16.92;11.75;;;;;;;3.74;61.23;101639.84;5269738;28;20032;-69
2021/04/09 00:09:54;;;;;;;22.20;12.35;;;;;;;3.71;61.35;101632.22;5268272;28;20040;-70
2021/04/09 00:12:25;;;;;;;18.55;12.05;;;;;;;3.69;62.60;101618.50;5265935;28;20405;-69
2021/04/09 00:14:57;;;;;;;18.08;11.70;;;;;;;3.71;61.50;101621.84;5267538;28;20116;-69
2021/04/09 00:17:28;;;;;;;17.35;12.45;;;;;;;3.70;61.96;101620.16;5268391;28;20035;-70
2021/04/09 00:19:59;;;;;;;17.25;12.18;;;;;;;3.67;61.81;101610.75;5268307;28;20067;-68
2021/04/09 00:22:31;;;;;;;17.90;12.65;;;;;;;3.69;61.71;101610.72;5267537;28;20040;-69
2021/04/09 00:25:06;;;;;;;18.13;12.60;;;;;;;3.68;62.28;101609.03;5266973;28;20116;-69
2021/04/09 00:27:37;;;;;;;23.00;13.27;;;;;;;3.65;62.12;101605.66;5270802;28;20437;-70
2021/04/09 00:30:13;;;;;;;23.27;13.75;;;;;;;3.66;62.22;101607.34;5268297;28;20025;-69
2021/04/09 00:32:46;;;;;;;19.27;12.60;;;;;;;3.64;62.72;101595.38;5267322;28;20029;-69
2021/04/09 00:35:17;;;;;;;19.10;13.02;;;;;;;3.63;62.12;101597.09;5265532;28;20074;-69
2021/04/09 00:37:51;;;;;;;19.05;13.18;;;;;;;3.64;62.93;101592.78;5250130;28;20033;-69
2021/04/09 00:40:23;;;;;;;20.60;12.70;;;;;;;3.63;62.73;101585.91;5266736;28;20363;-69
2021/04/09 00:42:54;;;;;;;18.10;11.82;;;;;;;3.64;62.12;101587.59;5269602;28;20039;-70
2021/04/09 00:45:26;;;;;;;18.83;13.85;;;;;;;3.64;62.48;101578.06;5267272;28;20029;-69
2021/04/09 00:47:57;;;;;;;17.30;12.52;;;;;;;3.62;62.18;101579.88;5265849;28;20465;-69
2021/04/09 00:50:28;;;;;;;20.80;12.88;;;;;;;3.63;62.63;101575.53;5266926;28;20025;-69
2021/04/09 00:53:02;;;;;;;16.88;12.40;;;;;;;3.63;62.67;101565.16;5268607;28;20028;-69
2021/04/09 00:55:34;;;;;;;19.33;12.98;;;;;;;3.62;62.35;101558.31;5264721;28;20028;-69
2021/04/09 00:58:06;;;;;;;18.00;13.03;;;;;;;3.63;62.54;101560.81;5268476;28;20040;-69
2021/04/09 01:00:37;;;;;;;18.17;12.63;;;;;;;3.61;63.01;101554.88;5266504;28;20438;-69
2021/04/09 01:03:08;;;;;;;21.58;14.02;;;;;;;3.61;62.58;101554.88;5267328;28;20382;-69
2021/04/09 01:05:40;;;;;;;17.23;13.30;;;;;;;3.61;62.81;101556.63;5268494;28;20112;-69
2021/04/09 01:08:12;;;;;;;23.42;13.50;;;;;;;3.61;63.12;101548.88;5266775;28;20032;-69
2021/04/09 01:10:43;;;;;;;20.65;13.02;;;;;;;3.57;62.56;101544.72;5265830;28;20061;-71
2021/04/09 01:13:15;;;;;;;18.38;12.75;;;;;;;3.61;63.33;101551.47;5266690;28;20045;-69
2021/04/09 01:15:46;;;;;;;18.35;12.63;;;;;;;3.62;63.25;101553.13;5263222;28;20021;-69
2021/04/09 01:18:23;;;;;;;20.00;13.60;;;;;;;3.60;63.45;101550.63;5268736;28;20077;-69
2021/04/09 01:21:03;;;;;;;17.77;13.00;;;;;;;3.61;63.95;101547.13;5265965;28;20111;-69
2021/04/09 01:23:59;;;;;;;19.65;13.63;;;;;;;3.66;63.29;101550.31;5267451;28;20106;-69
2021/04/09 01:26:52;;;;;;;20.58;13.63;;;;;;;3.62;63.35;101545.34;5267755;28;20070;-69
2021/04/09 01:29:51;;;;;;;18.77;13.87;;;;;;;3.64;63.30;101541.81;5264230;28;20082;-69
2021/04/09 01:32:23;;;;;;;19.08;12.93;;;;;;;3.56;63.66;101535.25;5266461;28;20119;-69
2021/04/09 01:34:58;;;;;;;19.42;13.50;;;;;;;3.55;63.12;101534.41;5267389;28;20036;-69
2021/04/09 01:37:37;;;;;;;15.93;11.82;;;;;;;3.52;63.65;101534.53;5267391;28;20048;-69
2021/04/09 01:40:17;;;;;;;24.17;14.25;;;;;;;3.51;63.98;101532.88;5265770;28;20039;-69
2021/04/09 01:42:54;;;;;;;16.52;12.82;;;;;;;3.50;63.98;101536.38;5266514;28;20152;-69
2021/04/09 01:45:28;;;;;;;17.42;13.25;;;;;;;3.46;63.45;101527.06;5265255;28;20067;-68
2021/04/09 01:48:00;;;;;;;;;;;;;;;3.62;62.98;101525.47;5266804;28;20016;-69
2021/04/09 01:50:33;;;;;;;20.80;12.68;;;;;;;3.49;63.91;101526.09;5266463;28;19912;-69
2021/04/09 01:53:07;;;;;;;16.20;12.80;;;;;;;3.45;63.75;101517.63;5266880;28;20162;-69
2021/04/09 01:55:44;;;;;;;22.63;13.30;;;;;;;3.49;64.24;101515.75;5257222;28;20024;-68
2021/04/09 01:58:17;;;;;;;19.13;12.90;;;;;;;3.47;63.75;101513.19;5264048;28;20498;-68
2021/04/09 02:00:50;;;;;;;19.13;12.35;;;;;;;3.46;63.42;101511.53;5262268;28;20031;-69
2021/04/09 02:03:22;;;;;;;19.40;12.90;;;;;;;3.44;63.97;101513.31;5265305;28;20033;-68
2021/04/09 02:05:56;;;;;;;20.98;12.75;;;;;;;3.47;63.68;101502.00;5265190;28;20020;-68
2021/04/09 02:08:29;;;;;;;;;;;;;;;3.60;63.72;101501.41;5268611;28;20485;-69
2021/04/09 02:11:00;;;;;;;19.10;12.10;;;;;;;3.44;63.72;101502.13;5266974;28;19966;-69
2021/04/09 02:13:33;;;;;;;20.42;12.25;;;;;;;3.41;64.18;101498.78;5265236;28;20028;-69
2021/04/09 02:16:06;;;;;;;18.38;12.18;;;;;;;3.37;64.01;101493.78;5263728;28;20037;-69
2021/04/09 02:18:38;;;;;;;18.92;12.07;;;;;;;3.39;63.78;101486.81;5267399;28;20036;-68
2021/04/09 02:21:10;;;;;;;16.13;12.48;;;;;;;3.33;64.38;101484.47;5265261;28;20390;-69
2021/04/09 02:23:41;;;;;;;16.08;12.13;;;;;;;3.35;64.52;101491.28;5244438;28;20055;-69
2021/04/09 02:26:13;;;;;;;19.13;12.48;;;;;;;3.29;64.79;101477.75;5265254;28;20052;-68
2021/04/09 02:28:45;;;;;;;15.82;12.43;;;;;;;3.30;64.89;101475.09;5262055;28;20024;-67
2021/04/09 02:31:17;;;;;;;17.60;11.93;;;;;;;3.31;64.57;101473.34;5262620;28;20029;-68
2021/04/09 02:33:49;;;;;;;20.30;13.15;;;;;;;3.23;64.85;101468.50;5262607;28;20022;-68
2021/04/09 02:36:24;;;;;;;17.67;12.27;;;;;;;3.25;64.78;101465.84;5263781;28;20055;-68
2021/04/09 02:39:07;;;;;;;14.77;11.45;;;;;;;3.27;64.95;101466.63;5263655;28;20099;-69
2021/04/09 02:41:43;;;;;;;18.98;11.95;;;;;;;3.24;64.81;101469.34;5266405;28;20119;-69
2021/04/09 02:44:15;;;;;;;15.65;11.77;;;;;;;3.22;65.30;101468.56;5264484;28;20059;-68
2021/04/09 02:46:56;;;;;;;17.15;11.75;;;;;;;3.25;64.67;101465.84;5264937;28;20097;-69
2021/04/09 02:49:40;;;;;;;16.90;12.32;;;;;;;3.23;65.65;101470.28;5266905;28;20024;-69
2021/04/09 02:52:18;;;;;;;17.40;12.02;;;;;;;3.19;65.41;101461.78;5262384;28;20029;-68
2021/04/09 02:54:51;;;;;;;16.63;11.80;;;;;;;3.14;65.42;101468.91;5265004;28;20040;-69
2021/04/09 02:57:25;;;;;;;16.92;10.75;;;;;;;3.11;65.94;101466.47;5262515;28;20036;-69
2021/04/09 02:59:57;;;;;;;21.63;12.13;;;;;;;3.08;65.52;101459.66;5265947;28;20475;-69
2021/04/09 03:02:29;;;;;;;19.85;11.10;;;;;;;3.03;65.72;101458.16;5266156;28;20021;-68
2021/04/09 03:05:05;;;;;;;20.00;11.30;;;;;;;3.06;65.84;101455.47;5265908;28;20021;-68
2021/04/09 03:07:41;;;;;;;17.80;12.27;;;;;;;2.98;65.79;101448.03;5264658;28;20040;-69
2021/04/09 03:10:15;;;;;;;15.48;11.82;;;;;;;2.97;66.02;101448.94;5257811;28;20025;-68
2021/04/09 03:12:46;;;;;;;19.42;11.68;;;;;;;2.97;66.33;101455.88;5264682;28;20028;-69
2021/04/09 03:15:24;;;;;;;22.25;11.90;;;;;;;2.98;66.64;101454.94;5266626;28;20477;-68
2021/04/09 03:18:05;;;;;;;19.02;10.82;;;;;;;2.94;66.33;101441.31;5262974;28;20040;-68
2021/04/09 03:20:36;;;;;;;21.35;11.07;;;;;;;2.95;66.89;101457.66;5264522;28;20123;-71
2021/04/09 03:23:08;;;;;;;14.85;11.30;;;;;;;2.86;66.41;101439.03;5263499;28;20135;-69
2021/04/09 03:25:39;;;;;;;17.27;11.10;;;;;;;2.93;66.27;101456.00;5264246;28;20032;-68
2021/04/09 03:28:10;;;;;;;16.23;10.27;;;;;;;2.94;66.46;101451.66;5264202;28;20493;-68
2021/04/09 03:30:49;;;;;;;14.77;9.65;;;;;;;2.89;66.50;101438.09;5264116;28;20032;-68
2021/04/09 03:33:22;;;;;;;16.55;10.88;;;;;;;2.92;66.41;101449.16;5264969;28;20031;-68
2021/04/09 03:35:53;;;;;;;19.40;10.40;;;;;;;2.93;66.91;101444.81;5262738;28;20532;-68
2021/04/09 03:38:24;;;;;;;14.77;10.10;;;;;;;2.93;65.84;101437.03;5262193;28;20041;-69
2021/04/09 03:40:56;;;;;;;17.77;10.10;;;;;;;2.89;66.73;101423.41;5265135;28;20040;-69
2021/04/09 03:43:27;;;;;;;17.58;9.18;;;;;;;2.88;66.84;101426.06;5263593;28;20044;-69
2021/04/09 03:45:58;;;;;;;14.75;9.57;;;;;;;2.93;66.54;101429.28;5265261;28;20433;-68
2021/04/09 03:48:30;;;;;;;17.02;9.95;;;;;;;2.93;66.19;101426.69;5263715;28;20024;-71
2021/04/09 03:51:03;;;;;;;16.58;9.73;;;;;;;2.93;66.15;101424.09;5263628;28;20025;-69
2021/04/09 03:53:34;;;;;;;16.02;10.38;;;;;;;2.92;66.58;101417.25;5264771;28;20031;-69
2021/04/09 03:56:05;;;;;;;15.25;9.77;;;;;;;2.86;66.16;101410.59;5263971;28;20024;-69
2021/04/09 03:58:37;;;;;;;16.50;9.65;;;;;;;2.90;67.00;101413.88;5263496;28;20102;-69
2021/04/09 04:01:08;;;;;;;18.25;10.38;;;;;;;2.90;66.38;101421.63;5255928;28;20545;-68
2021/04/09 04:03:39;;;;;;;15.05;9.82;;;;;;;2.89;66.86;101414.78;5260839;28;20494;-68
2021/04/09 04:06:10;;;;;;;15.43;9.55;;;;;;;2.89;66.72;101418.22;5261870;28;20466;-69
2021/04/09 04:08:42;;;;;;;15.55;9.75;;;;;;;2.84;66.27;101402.06;5265266;28;20020;-68
2021/04/09 04:11:13;;;;;;;17.55;10.05;;;;;;;2.87;66.66;101406.25;5262481;28;20159;-69
2021/04/09 04:13:45;;;;;;;15.40;9.73;;;;;;;2.90;65.95;101414.72;5262891;28;20028;-69
2021/04/09 04:16:16;;;;;;;16.50;10.30;;;;;;;2.90;66.96;101416.47;5263128;28;20025;-68
2021/04/09 04:18:48;;;;;;;16.35;10.00;;;;;;;2.90;66.51;101409.53;5263894;28;20032;-69
2021/04/09 04:21:19;;;;;;;15.55;10.52;;;;;;;2.89;66.51;101410.44;5265292;28;20390;-69
2021/04/09 04:23:51;;;;;;;18.08;10.20;;;;;;;2.90;66.54;101419.06;5263823;28;20028;-69
2021/04/09 04:26:22;;;;;;;18.58;10.98;;;;;;;2.87;66.88;101404.50;5262886;28;20028;-68
2021/04/09 04:28:54;;;;;;;18.80;10.32;;;;;;;2.86;66.76;101408.00;5261642;28;20467;-68
2021/04/09 04:31:25;;;;;;;14.82;9.95;;;;;;;2.86;67.15;101413.16;5247514;28;20036;-68
2021/04/09 04:33:56;;;;;;;17.33;10.25;;;;;;;2.83;66.98;101407.28;5264638;28;20032;-68
2021/04/09 04:36:28;;;;;;;17.33;9.77;;;;;;;2.86;67.30;101407.16;5261559;28;20059;-69
2021/04/09 04:38:59;;;;;;;16.77;10.27;;;;;;;2.86;66.67;101409.75;5264294;28;20032;-69
2021/04/09 04:41:31;;;;;;;16.80;9.75;;;;;;;2.87;67.06;101414.00;5263015;28;20028;-69
2021/04/09 04:44:02;;;;;;;17.15;10.75;;;;;;;2.84;67.36;101411.53;5262916;28;20032;-70
2021/04/09 04:46:33;;;;;;;16.40;10.30;;;;;;;2.83;66.77;101405.53;5264458;28;20479;-71
2021/04/09 04:49:05;;;;;;;19.35;10.77;;;;;;;2.82;67.32;101409.03;5264216;28;20570;-69
2021/04/09 04:51:36;;;;;;;21.15;11.27;;;;;;;2.81;67.45;101409.13;5262152;28;20128;-70
2021/04/09 04:54:08;;;;;;;18.60;11.43;;;;;;;2.83;67.55;101402.09;5269696;28;20021;-70
2021/04/09 04:56:39;;;;;;;14.73;10.55;;;;;;;2.79;67.68;101409.16;5266348;28;20051;-70
2021/04/09 04:59:10;;;;;;;20.65;10.55;;;;;;;2.77;68.07;101403.22;5268098;28;20040;-70
2021/04/09 05:01:41;;;;;;;20.13;11.95;;;;;;;2.77;68.14;101399.81;5267456;28;20422;-70
2021/04/09 05:04:13;;;;;;;17.30;10.52;;;;;;;2.77;67.99;101402.41;5267562;28;20588;-69
2021/04/09 05:06:44;;;;;;;16.00;10.45;;;;;;;2.75;67.89;101399.03;5267104;28;20584;-70
2021/04/09 05:09:15;;;;;;;20.50;10.98;;;;;;;2.76;67.67;101390.34;5269295;28;20056;-70
2021/04/09 05:11:47;;;;;;;16.52;10.98;;;;;;;2.74;68.06;101387.84;5266877;28;20032;-69
2021/04/09 05:14:18;;;;;;;17.52;10.60;;;;;;;2.76;67.79;101393.75;5248092;28;20024;-70
2021/04/09 05:16:49;;;;;;;16.50;10.15;;;;;;;2.76;68.11;101395.53;5270836;28;20652;-70
2021/04/09 05:19:21;;;;;;;16.00;10.77;;;;;;;2.73;68.34;101391.34;5268027;28;20478;-70
2021/04/09 05:21:52;;;;;;;19.17;10.90;;;;;;;2.79;67.87;101390.22;5265296;28;20139;-69
2021/04/09 05:24:23;;;;;;;15.05;10.73;;;;;;;2.79;68.13;101385.03;5265734;28;20086;-69
2021/04/09 05:26:55;;;;;;;15.90;10.30;;;;;;;2.81;67.94;101384.06;5265511;28;20115;-70
2021/04/09 05:29:26;;;;;;;18.83;11.48;;;;;;;2.83;67.87;101386.59;5269440;28;20036;-70
2021/04/09 05:31:58;;;;;;;21.92;11.05;;;;;;;2.84;67.91;101377.91;5268178;28;20030;-69
2021/04/09 05:34:29;;;;;;;19.70;11.57;;;;;;;2.86;67.84;101391.63;5265622;28;20075;-69
2021/04/09 05:37:01;;;;;;;18.70;10.35;;;;;;;2.89;68.30;101382.00;5265571;28;20044;-70
2021/04/09 05:39:33;;;;;;;17.45;11.13;;;;;;;2.92;67.92;101375.84;5266847;28;20040;-70
2021/04/09 05:42:05;;;;;;;17.63;11.13;;;;;;;2.97;68.29;101373.03;5264868;28;20029;-70
2021/04/09 05:44:37;;;;;;;21.05;11.82;;;;;;;2.98;68.35;101374.72;5267128;28;20031;-70
2021/04/09 05:47:09;;;;;;;20.17;11.15;;;;;;;3.02;67.17;101368.50;5266104;28;20025;-70
2021/04/09 05:49:40;;;;;;;18.08;11.43;;;;;;;3.08;68.47;101386.34;5264148;28;20028;-70
2021/04/09 05:52:11;;;;;;;17.95;10.82;;;;;;;3.12;67.08;101374.94;5265801;28;20509;-72
2021/04/09 05:54:43;;;;;;;19.80;12.07;;;;;;;3.14;68.04;101373.09;5267532;28;20174;-70
2021/04/09 05:57:14;;;;;;;18.25;11.65;;;;;;;3.19;67.58;101371.19;5266823;28;20021;-70
2021/04/09 05:59:47;;;;;;;19.17;11.38;;;;;;;3.25;67.17;101377.81;5266426;28;20033;-71
2021/04/09 06:02:18;;;;;;;19.63;11.88;;;;;;;3.34;67.54;101374.81;5265229;28;20331;-70
2021/04/09 06:04:49;;;;;;;18.35;11.20;;;;;;;3.37;67.25;101379.81;5265591;28;20033;-70
2021/04/09 06:07:21;;;;;;;16.67;11.70;;;;;;;3.42;67.44;101370.94;5259899;28;20115;-72
2021/04/09 06:09:52;;;;;;;20.60;11.80;;;;;;;3.47;66.91;101370.72;5260702;28;20032;-71
2021/04/09 06:12:23;;;;;;;17.80;10.93;;;;;;;3.53;66.81;101367.88;5264081;28;20055;-71
2021/04/09 06:14:55;;;;;;;16.08;11.05;;;;;;;3.58;66.85;101375.41;5267770;28;21490;-72
2021/04/09 06:17:30;;;;;;;18.35;10.70;;;;;;;3.62;66.75;101369.16;5265658;28;20146;-73
2021/04/09 06:20:06;;;;;;;14.82;10.35;;;;;;;3.69;66.86;101372.31;5265881;28;20029;-71
2021/04/09 06:22:38;;;;;;;17.02;10.77;;;;;;;3.76;66.36;101377.13;5267519;28;20120;-71
2021/04/09 06:25:09;;;;;;;16.48;10.23;;;;;;;3.86;66.39;101369.75;5261933;28;20029;-71
2021/04/09 06:27:41;;;;;;;14.80;10.75;;;;;;;3.96;65.14;101365.78;5263711;28;20398;-72
2021/04/09 06:30:15;;;;;;;15.98;10.50;;;;;;;4.06;64.98;101374.81;5264577;28;20029;-71
2021/04/09 06:32:47;;;;;;;15.88;10.75;;;;;;;4.15;65.30;101366.56;5246723;28;20025;-71
2021/04/09 06:35:18;;;;;;;14.23;9.80;;;;;;;4.24;64.50;101367.84;5265553;28;20478;-72
2021/04/09 06:37:50;;;;;;;17.40;10.52;;;;;;;4.31;65.28;101378.78;5260965;28;20063;-72
2021/04/09 06:40:22;;;;;;;15.70;9.88;;;;;;;4.39;64.04;101376.63;5264960;28;20043;-72
2021/04/09 06:42:57;;;;;;;16.50;9.85;;;;;;;4.46;64.43;101378.00;5266070;28;20024;-72
2021/04/09 06:45:29;;;;;;;18.48;10.43;;;;;;;4.47;65.00;101374.50;5267375;28;20409;-71
2021/04/09 06:48:00;;;;;;;20.92;10.60;;;;;;;4.60;64.15;101372.94;5262940;28;20028;-70
2021/04/09 06:50:31;;;;;;;23.23;9.80;;;;;;;4.65;63.88;101377.91;5249037;28;20046;-72
2021/04/09 06:53:07;;;;;;;14.50;9.70;;;;;;;4.74;63.80;101369.66;5260578;28;20043;-70
2021/04/09 06:55:42;;;;;;;16.77;10.55;;;;;;;4.80;62.93;101377.09;5261782;28;20032;-73
2021/04/09 06:58:19;;;;;;;17.40;9.15;;;;;;;4.92;63.22;101367.00;5260440;28;20075;-72
2021/04/09 07:00:51;;;;;;;12.82;8.68;;;;;;;4.97;62.45;101371.03;5265383;28;20025;-72
2021/04/09 07:03:23;;;;;;;15.00;9.30;;;;;;;5.03;62.50;101368.09;5260959;28;20025;-72
2021/04/09 07:05:54;;;;;;;17.85;9.82;;;;;;;5.09;62.76;101370.38;5266005;28;20025;-72
2021/04/09 07:08:27;;;;;;;14.23;9.40;;;;;;;5.15;61.83;101361.41;5264898;28;20032;-72
2021/04/09 07:10:58;;;;;;;17.35;9.55;;;;;;;5.18;62.37;101356.06;5260548;28;20032;-72
2021/04/09 07:13:30;;;;;;;14.20;9.02;;;;;;;5.23;61.76;101367.06;5259040;28;20394;-72
2021/04/09 07:16:08;;;;;;;17.58;9.13;;;;;;;5.32;62.01;101353.56;5262157;28;20422;-72
2021/04/09 07:19:03;;;;;;;12.93;9.25;;;;;;;5.44;62.32;101361.59;5264302;28;20405;-72
2021/04/09 07:21:37;;;;;;;13.30;8.63;;;;;;;5.47;61.35;101358.84;5262682;28;20051;-72
2021/04/09 07:24:14;;;;;;;14.95;8.82;;;;;;;5.60;61.98;101352.84;5266679;28;20387;-73
2021/04/09 07:26:53;;;;;;;16.27;9.07;;;;;;;5.71;61.04;101357.47;5247997;28;20029;-72
2021/04/09 07:29:39;;;;;;;14.77;9.50;;;;;;;5.82;60.53;101359.47;5252936;28;20394;-72
2021/04/09 07:32:14;;;;;;;15.82;10.20;;;;;;;5.91;60.76;101352.88;5263028;28;20235;-72
2021/04/09 07:34:59;;;;;;;10.90;8.23;;;;;;;6.03;60.56;101360.88;5259922;28;20119;-72
2021/04/09 07:37:48;;;;;;;11.98;8.70;;;;;;;6.11;60.64;101357.00;5259223;28;20458;-72
2021/04/09 07:40:21;;;;;;;15.73;8.60;;;;;;;6.20;59.76;101359.06;5241806;28;20447;-72
2021/04/09 07:42:53;;;;;;;12.77;8.38;;;;;;;6.29;59.71;101350.72;5261814;28;20028;-72
2021/04/09 07:45:28;;;;;;;11.02;8.27;;;;;;;6.39;58.93;101356.22;5244216;28;20032;-73
2021/04/09 07:48:06;;;;;;;11.50;7.20;;;;;;;6.45;58.48;101350.66;5260879;28;20023;-72
2021/04/09 07:50:42;;;;;;;13.65;8.43;;;;;;;6.53;59.04;101362.28;5254972;28;20124;-71
2021/04/09 07:53:41;;;;;;;12.85;7.88;;;;;;;6.64;58.35;101348.63;5257512;28;20375;-71
2021/04/09 07:56:17;;;;;;;11.57;7.57;;;;;;;6.70;58.09;101348.25;5255817;28;20040;-70
2021/04/09 07:58:56;;;;;;;12.02;7.60;;;;;;;6.81;58.25;101345.00;5257690;28;20111;-71
2021/04/09 08:01:27;;;;;;;10.27;6.68;;;;;;;6.89;57.79;101341.91;5259778;28;20520;-71
2021/04/09 08:04:10;;;;;;;10.05;7.32;;;;;;;6.99;57.60;101349.06;5261250;28;20145;-71
2021/04/09 08:06:41;;;;;;;11.82;7.57;;;;;;;7.11;56.77;101349.25;5262649;28;20477;-71
2021/04/09 08:09:13;;;;;;;10.02;7.20;;;;;;;7.16;57.19;101344.56;5259534;28;20033;-71
2021/04/09 08:11:44;;;;;;;10.13;6.45;;;;;;;7.28;55.34;101342.06;5262634;28;20053;-70
2021/04/09 08:14:24;;;;;;;11.88;7.30;;;;;;;7.43;56.32;101345.47;5257560;28;20035;-70
2021/04/09 08:16:55;;;;;;;13.32;7.50;;;;;;;7.54;55.73;101343.00;5257778;28;20032;-70
2021/04/09 08:19:27;;;;;;;11.43;6.82;;;;;;;7.68;55.52;101341.28;5260625;28;20027;-70
2021/04/09 08:22:00;;;;;;;9.35;6.18;;;;;;;7.74;54.60;101346.09;5257547;28;20028;-71
2021/04/09 08:24:35;;;;;;;9.85;6.68;;;;;;;7.94;55.73;101340.41;5255906;28;20461;-70
2021/04/09 08:27:07;;;;;;;15.32;6.82;;;;;;;8.16;54.92;101352.88;5263571;28;20031;-71
2021/04/09 08:29:41;;;;;;;8.30;5.72;;;;;;;8.34;54.44;101348.22;5262887;28;20032;-70
2021/04/09 08:32:15;;;;;;;;;;;;;;;8.53;53.79;101361.72;5267212;28;20029;-70
2021/04/09 08:34:47;;;;;;;10.15;5.65;;;;;;;8.51;52.87;101358.38;5260987;28;19987;-70
2021/04/09 08:37:20;;;;;;;9.05;6.32;;;;;;;8.66;52.63;101358.25;5264216;28;20083;-71
2021/04/09 08:39:52;;;;;;;11.57;5.75;;;;;;;8.83;52.45;101362.34;5258178;28;20090;-70
2021/04/09 08:42:23;;;;;;;12.10;6.07;;;;;;;9.00;51.37;101360.22;5262193;28;20115;-70
2021/04/09 08:44:59;;;;;;;10.45;5.80;;;;;;;9.17;51.77;101360.81;5259431;28;21082;-70
2021/04/09 08:47:31;;;;;;;9.90;5.82;;;;;;;9.26;51.44;101360.16;5260286;28;20098;-70
2021/04/09 08:50:08;;;;;;;8.00;5.60;;;;;;;9.46;51.41;101356.94;5238787;28;20024;-70
2021/04/09 08:52:46;;;;;;;10.88;5.57;;;;;;;9.56;51.14;101356.31;5263094;28;20027;-70
2021/04/09 08:55:17;;;;;;;7.65;4.57;;;;;;;9.54;50.03;101350.31;5260813;28;20670;-70
2021/04/09 08:57:49;;;;;;;7.20;4.97;;;;;;;9.58;49.79;101352.59;5260382;28;20078;-70
2021/04/09 09:00:23;;;;;;;8.65;4.20;;;;;;;9.70;50.42;101353.53;5246980;28;20021;-70
2021/04/09 09:02:55;;;;;;;7.40;4.68;;;;;;;9.73;49.74;101353.28;5260351;28;20027;-70
2021/04/09 09:05:31;;;;;;;5.43;3.80;;;;;;;9.75;49.77;101352.22;5259461;28;20042;-68
2021/04/09 09:08:04;;;;;;;6.10;3.97;;;;;;;9.87;50.69;101358.34;5263857;28;20036;-70
2021/04/09 09:10:41;;;;;;;6.78;4.38;;;;;;;9.97;49.70;101350.66;5260297;28;20028;-70
2021/04/09 09:13:15;;;;;;;9.98;4.60;;;;;;;10.12;49.60;101352.13;5269015;28;20420;-70
2021/04/09 09:15:46;;;;;;;6.85;4.70;;;;;;;10.29;50.15;101355.28;5264299;28;20029;-70
2021/04/09 09:18:33;;;;;;;7.33;4.80;;;;;;;10.44;49.07;101351.50;5267157;28;20025;-70
2021/04/09 09:21:13;;;;;;;7.13;3.85;;;;;;;10.51;49.89;101362.38;5266052;28;20648;-69
2021/04/09 09:23:51;;;;;;;7.70;3.90;;;;;;;10.64;49.25;101348.19;5264248;28;20486;-69
2021/04/09 09:26:28;;;;;;;6.90;4.03;;;;;;;10.77;48.68;101348.09;5263021;28;20098;-70
2021/04/09 09:29:28;;;;;;;6.45;4.13;;;;;;;10.89;48.24;101343.69;5266854;28;20039;-70
2021/04/09 09:32:04;;;;;;;8.32;4.10;;;;;;;11.00;48.37;101345.47;5263773;28;20025;-70
2021/04/09 09:34:40;;;;;;;10.15;3.83;;;;;;;11.14;49.39;101345.22;5261819;28;20017;-70
2021/04/09 09:37:18;;;;;;;5.90;3.65;;;;;;;11.09;48.52;101349.97;5267591;28;20481;-69
2021/04/09 09:39:50;;;;;;;5.53;3.55;;;;;;;11.14;48.78;101345.22;5265851;28;20028;-70
2021/04/09 09:42:21;;;;;;;4.93;3.13;;;;;;;11.16;48.04;101343.28;5265503;28;20090;-69
2021/04/09 09:45:04;;;;;;;4.53;3.33;;;;;;;11.39;48.94;101344.91;5266337;28;20059;-70
2021/04/09 09:47:41;;;;;;;6.32;3.13;;;;;;;11.43;48.48;101333.22;5264654;28;20040;-69
2021/04/09 09:50:20;;;;;;;6.68;3.28;;;;;;;11.69;48.44;101332.88;5253510;28;20059;-70
2021/04/09 09:53:03;;;;;;;5.40;3.50;;;;;;;11.85;48.55;101327.25;5260738;28;20029;-69
2021/04/09 09:55:44;;;;;;;4.47;3.22;;;;;;;11.96;48.68;101318.47;5244985;28;20017;-70
2021/04/09 09:58:24;;;;;;;5.45;3.00;;;;;;;11.85;48.94;101330.69;5259384;28;20055;-69
2021/04/09 10:01:03;;;;;;;3.80;2.58;;;;;;;11.78;47.77;101333.91;5264897;28;20104;-69
2021/04/09 10:03:36;;;;;;;5.18;2.83;;;;;;;11.62;47.46;101329.09;5263269;28;20032;-69
2021/04/09 10:06:11;;;;;;;4.85;2.65;;;;;;;11.56;47.52;101330.44;5264559;28;20025;-69
2021/04/09 10:08:43;;;;;;;3.58;2.15;;;;;;;11.42;47.11;101325.47;5261480;28;20111;-69
2021/04/09 10:11:17;;;;;;;4.03;2.42;;;;;;;11.49;47.45;101321.41;5263490;28;20085;-69
2021/04/09 10:13:50;;;;;;;5.28;2.25;;;;;;;11.40;47.65;101322.97;5262764;28;20051;-69
2021/04/09 10:16:23;;;;;;;3.47;2.60;;;;;;;11.35;47.16;101325.13;5263475;28;20029;-69
2021/04/09 10:18:58;;;;;;;;;;;;;;;11.51;47.03;101329.97;5262126;28;20078;-69
2021/04/09 10:21:32;;;;;;;6.28;3.13;;;;;;;11.10;47.78;101328.88;5261049;28;19927;-69
2021/04/09 10:24:15;;;;;;;4.63;3.38;;;;;;;11.16;48.90;101332.81;5258976;28;20033;-69
2021/04/09 10:26:54;;;;;;;6.90;3.25;;;;;;;11.34;48.62;101331.34;5261176;28;20037;-70
2021/04/09 10:29:33;;;;;;;6.75;3.30;;;;;;;11.29;48.35;101320.38;5260004;28;20031;-70
2021/04/09 10:32:13;;;;;;;4.82;2.55;;;;;;;11.62;48.60;101322.06;5261023;28;20033;-71
2021/04/09 10:34:51;;;;;;;3.45;2.55;;;;;;;11.85;48.04;101322.00;5262180;28;20402;-71
2021/04/09 10:37:24;;;;;;;6.22;2.78;;;;;;;12.01;47.29;101321.53;5260501;28;20471;-70
2021/04/09 10:39:56;;;;;;;4.53;3.20;;;;;;;12.11;46.36;101325.09;5255953;28;20028;-69
2021/04/09 10:42:27;;;;;;;4.72;2.90;;;;;;;12.33;46.94;101318.88;5261812;28;20036;-70
2021/04/09 10:44:58;;;;;;;7.53;3.65;;;;;;;12.48;46.97;101322.00;5262743;28;20033;-70
2021/04/09 10:47:30;;;;;;;6.68;3.20;;;;;;;12.52;46.23;101326.84;5257221;28;20417;-70
2021/04/09 10:50:02;;;;;;;6.20;3.30;;;;;;;12.60;45.63;101323.56;5258501;28;20048;-70
2021/04/09 10:52:34;;;;;;;4.35;2.70;;;;;;;12.82;44.09;101314.66;5263409;28;20095;-70
2021/04/09 10:55:06;;;;;;;6.88;3.15;;;;;;;13.05;44.34;101310.84;5250333;28;20398;-70
2021/04/09 10:57:37;;;;;;;5.85;3.53;;;;;;;12.98;42.96;101312.34;5255587;28;20473;-69
2021/04/09 11:00:10;;;;;;;7.75;3.95;;;;;;;13.17;44.07;101308.94;5223480;28;20036;-70
2021/04/09 11:02:41;;;;;;;5.53;3.40;;;;;;;13.27;43.36;101307.19;5257655;28;20035;-70
2021/04/09 11:05:13;;;;;;;5.53;3.55;;;;;;;13.36;43.28;101300.28;5262038;28;20028;-70
2021/04/09 11:07:48;;;;;;;5.65;4.03;;;;;;;13.43;44.21;101305.81;5263974;28;20020;-71
2021/04/09 11:10:33;;;;;;;5.20;3.95;;;;;;;13.36;43.01;101303.72;5263523;28;20039;-71
2021/04/09 11:13:05;;;;;;;6.15;3.97;;;;;;;13.33;43.58;101301.41;5261958;28;20024;-70
2021/04/09 11:15:43;;;;;;;5.10;3.38;;;;;;;13.28;43.32;101300.94;5259543;28;20064;-71
2021/04/09 11:18:16;;;;;;;5.22;3.63;;;;;;;13.35;42.51;101288.09;5260653;28;20036;-70
2021/04/09 11:20:47;;;;;;;5.90;4.18;;;;;;;13.50;43.10;101296.41;5259377;28;20026;-70
2021/04/09 11:23:19;;;;;;;7.15;3.92;;;;;;;13.68;43.14;101292.13;5256220;28;20025;-70
2021/04/09 11:25:50;;;;;;;5.35;3.40;;;;;;;13.81;41.62;101292.66;5255240;28;20478;-70
2021/04/09 11:28:29;;;;;;;3.90;3.45;;;;;;;13.87;41.23;101294.72;5256422;28;20643;-70
2021/04/09 11:31:03;;;;;;;4.72;3.20;;;;;;;14.22;41.60;101282.75;5248890;28;20029;-70
2021/04/09 11:33:38;;;;;;;6.68;3.10;;;;;;;14.18;40.42;101286.63;5259929;28;20099;-70
2021/04/09 11:36:19;;;;;;;4.03;2.78;;;;;;;14.41;40.17;101286.28;5259221;28;20065;-70
2021/04/09 11:38:53;;;;;;;4.72;2.90;;;;;;;14.56;40.34;101290.16;5259570;28;20033;-70
2021/04/09 11:41:30;;;;;;;5.55;2.97;;;;;;;14.53;40.26;101287.78;5257219;28;20116;-70
2021/04/09 11:44:51;;;;;;;4.55;2.83;;;;;;;14.80;40.23;101281.69;5253349;28;20028;-70
2021/04/09 11:47:27;;;;;;;4.10;2.90;;;;;;;14.64;39.30;101287.59;5245972;28;20043;-70
2021/04/09 11:50:11;;;;;;;4.75;2.85;;;;;;;14.38;38.78;101286.56;5258782;28;20017;-70
2021/04/09 11:53:04;;;;;;;4.40;3.30;;;;;;;14.22;40.81;101280.09;5262318;28;20112;-71
2021/04/09 11:55:38;;;;;;;5.63;3.60;;;;;;;13.99;41.22;101276.13;5260863;28;20119;-70